Hlavní strana
METAR-TAF:

METAR-TAF

Letiště :

Blue Ridge Airport

Martinsville, Virginie, Spojené státy americké

zeměpisná šířka: 36-38N, zeměpisná délka: 080-01W, výška: 287 m

Aktuální stav počasí

Zpráva byla vytvořena před 15 minutami, v 09:35 UTC
Bezvětří
Teplota 19°C
Vlhkost vzduchu 100%
Tlak 1020 hPa
Viditelnost: 2.4 km
Zataženo ve výšce 200 ft
kouřmo

METAR: KMTV 070935Z AUTO 00000KT 1 1/2SM BR OVC002 19/19 A3012 RMK AO2 T01930193

Čas: 05:50 (09:50 UTC)


TAF: chybějící

Stav a předpovědi počasí z více než 4 000 letišť (zprávy METAR a TAF).

Červené a žluté tečky na mapě představují dostupné meteorologické stanice.

Když kurzor umístíte na tečku, zobrazí se název stanice.

Pak kliknutím zobrazíte stav a předpověď počasí.

Chcete-li změnit mapu, kliknutím na zelené tlačítko se znaménkem +mapu přiblížíte, kliknutím na zelené tlačítko se znaménkem – mapu oddálíte a kliknutím na zelené šipky přejdete na sousední mapy.


METAR-TAF: